createdAt,value
2018-09-11T00:00:08.843Z,95739.72
2018-09-11T00:02:37.836Z,95740.67
2018-09-11T00:05:06.837Z,95748.05
2018-09-11T00:07:35.842Z,95750.76
2018-09-11T00:10:04.864Z,95754.87
2018-09-11T00:12:33.781Z,95755.55
2018-09-11T00:15:02.713Z,95756.55
2018-09-11T00:17:31.638Z,95757.93
2018-09-11T00:20:00.587Z,95755.73
2018-09-11T00:22:29.499Z,95754.59
2018-09-11T00:24:59.167Z,95755.02
2018-09-11T00:27:28.128Z,95753.08
2018-09-11T00:29:57.043Z,95748.23
2018-09-11T00:32:25.960Z,95735.12
2018-09-11T00:34:54.891Z,95741.30
2018-09-11T00:37:23.831Z,95736.68
2018-09-11T00:39:52.784Z,95736.80
2018-09-11T00:42:21.764Z,95732.73
2018-09-11T00:44:50.702Z,95731.53
2018-09-11T00:47:19.631Z,95733.22
2018-09-11T00:49:48.651Z,95729.99
2018-09-11T00:52:17.640Z,95728.55
2018-09-11T00:54:46.745Z,95733.17
2018-09-11T00:57:15.664Z,95729.52
2018-09-11T00:59:44.571Z,95738.96
2018-09-11T01:02:13.481Z,95739.08
2018-09-11T01:04:42.455Z,95739.39
2018-09-11T01:07:11.356Z,95736.75
2018-09-11T01:09:40.261Z,95742.62
2018-09-11T01:12:09.228Z,95742.58
2018-09-11T01:14:38.152Z,95718.27
2018-09-11T01:17:07.118Z,95732.32
2018-09-11T01:19:36.053Z,95732.73
2018-09-11T01:22:04.995Z,95731.84
2018-09-11T01:24:33.886Z,95726.61
2018-09-11T01:27:02.869Z,95732.09
2018-09-11T01:29:32.872Z,95729.64
2018-09-11T01:32:01.808Z,95732.59
2018-09-11T01:34:30.734Z,95732.91
2018-09-11T01:36:59.779Z,95736.24
2018-09-11T01:39:28.719Z,95745.84
2018-09-11T01:41:57.611Z,95747.04
2018-09-11T01:44:26.612Z,95746.16
2018-09-11T01:46:55.547Z,95740.87
2018-09-11T01:49:24.527Z,95739.78
2018-09-11T01:51:53.479Z,95738.58
2018-09-11T01:54:22.409Z,95739.40
2018-09-11T01:56:51.315Z,95739.39
2018-09-11T01:59:20.219Z,95742.84
2018-09-11T02:01:49.145Z,95725.84
2018-09-11T02:04:18.120Z,95740.67
2018-09-11T02:06:47.092Z,95739.58
2018-09-11T02:09:15.990Z,95739.92
2018-09-11T02:11:44.995Z,95740.16
2018-09-11T02:14:13.982Z,95747.06
2018-09-11T02:16:42.885Z,95743.14
2018-09-11T02:19:11.863Z,95746.70
2018-09-11T02:21:40.779Z,95748.23
2018-09-11T02:24:09.706Z,95754.71
2018-09-11T02:26:38.654Z,95754.93
2018-09-11T02:29:07.610Z,95761.21
2018-09-11T02:31:36.574Z,95766.73
2018-09-11T02:34:05.558Z,95754.55
2018-09-11T02:36:34.542Z,95757.61
2018-09-11T02:39:04.391Z,95761.47
2018-09-11T02:41:33.342Z,95762.84
2018-09-11T02:44:02.346Z,95761.38
2018-09-11T02:46:31.318Z,95762.39
2018-09-11T02:49:00.299Z,95760.09
2018-09-11T02:51:29.216Z,95762.06
2018-09-11T02:53:58.162Z,95765.16
2018-09-11T02:56:27.328Z,95762.39
2018-09-11T02:58:56.235Z,95762.39
2018-09-11T03:01:25.154Z,95757.75
2018-09-11T03:03:54.237Z,95764.16
2018-09-11T03:06:23.292Z,95767.95
2018-09-11T03:08:52.298Z,95765.66
2018-09-11T03:11:21.225Z,95765.05
2018-09-11T03:13:50.244Z,95761.77
2018-09-11T03:16:19.167Z,95763.37
2018-09-11T03:18:48.236Z,95774.02
2018-09-11T03:21:17.175Z,95769.66
2018-09-11T03:23:46.136Z,95770.67
2018-09-11T03:26:15.112Z,95770.77
2018-09-11T03:28:44.091Z,95768.59
2018-09-11T03:31:13.013Z,95774.12
2018-09-11T03:33:41.915Z,95771.16
2018-09-11T03:36:10.844Z,95770.87
2018-09-11T03:38:39.755Z,95772.41
2018-09-11T03:41:08.764Z,95775.47
2018-09-11T03:43:37.688Z,95775.34
2018-09-11T03:46:06.641Z,95777.31
2018-09-11T03:48:35.585Z,95776.18
2018-09-11T03:51:04.495Z,95781.95
2018-09-11T03:53:33.500Z,95779.50
2018-09-11T03:56:02.447Z,95784.11
2018-09-11T03:58:31.529Z,95781.19
2018-09-11T04:01:00.458Z,95782.48
2018-09-11T04:03:29.455Z,95782.61
2018-09-11T04:05:58.359Z,95781.30
2018-09-11T04:08:27.308Z,95784.09
2018-09-11T04:10:56.284Z,95787.86
2018-09-11T04:13:25.212Z,95784.70
2018-09-11T04:15:54.207Z,95788.13
2018-09-11T04:18:23.162Z,95784.02
2018-09-11T04:20:52.181Z,95790.98
2018-09-11T04:23:21.150Z,95798.22
2018-09-11T04:25:50.223Z,95801.55
2018-09-11T04:28:19.213Z,95800.59
2018-09-11T04:30:48.220Z,95800.70
2018-09-11T04:33:17.136Z,95804.48
2018-09-11T04:35:46.142Z,95805.17
2018-09-11T04:38:15.167Z,95820.09
2018-09-11T04:40:44.252Z,95816.63
2018-09-11T04:43:13.248Z,95817.23
2018-09-11T04:45:42.205Z,95813.61
2018-09-11T04:48:11.288Z,95810.95
2018-09-11T04:50:40.234Z,95820.05
2018-09-11T04:53:09.178Z,95825.06
2018-09-11T04:55:38.342Z,95818.34
2018-09-11T04:58:07.576Z,95823.70
2018-09-11T05:00:36.561Z,95834.02
2018-09-11T05:03:05.593Z,95828.08
2018-09-11T05:05:34.578Z,95830.03
2018-09-11T05:08:03.597Z,95834.64
2018-09-11T05:10:33.054Z,95829.25
2018-09-11T05:13:02.020Z,95825.67
2018-09-11T05:15:30.927Z,95823.87
2018-09-11T05:17:59.903Z,95826.95
2018-09-11T05:20:28.800Z,95823.87
2018-09-11T05:22:57.745Z,95820.27
2018-09-11T05:25:26.663Z,95818.33
2018-09-11T05:27:55.608Z,95819.02
2018-09-11T05:30:24.937Z,95820.66
2018-09-11T05:32:54.033Z,95822.61
2018-09-11T05:35:23.024Z,95824.98
2018-09-11T05:37:51.971Z,95824.12
2018-09-11T05:40:21.040Z,95817.23
2018-09-11T05:42:50.040Z,95815.52
2018-09-11T05:45:18.958Z,95822.90
2018-09-11T05:47:47.861Z,95817.92
2018-09-11T05:50:17.073Z,95823.49
2018-09-11T05:52:45.983Z,95820.76
2018-09-11T05:55:14.890Z,95821.28
2018-09-11T05:57:43.797Z,95825.42
2018-09-11T06:00:13.003Z,95827.97
2018-09-11T06:02:42.085Z,95833.56
2018-09-11T06:05:10.994Z,95835.19
2018-09-11T06:07:41.017Z,95829.08
2018-09-11T06:10:10.092Z,95827.88
2018-09-11T06:12:39.022Z,95833.36
2018-09-11T06:15:08.029Z,95831.02
2018-09-11T06:17:36.996Z,95822.79
2018-09-11T06:20:06.544Z,95827.21
2018-09-11T06:22:35.567Z,95823.11
2018-09-11T06:25:05.095Z,95825.76
2018-09-11T06:27:34.020Z,95830.13
2018-09-11T06:30:03.787Z,95820.97
2018-09-11T06:32:33.344Z,95817.70
2018-09-11T06:35:02.724Z,95815.63
2018-09-11T06:37:31.758Z,95822.24
2018-09-11T06:40:01.324Z,95824.37
2018-09-11T06:42:30.769Z,95828.71
2018-09-11T06:45:00.265Z,95833.02
2018-09-11T06:47:29.963Z,95826.38
2018-09-11T06:49:59.122Z,95835.64
2018-09-11T06:52:28.164Z,95828.66
2018-09-11T06:54:57.523Z,95835.75
2018-09-11T06:57:26.978Z,95842.98
2018-09-11T06:59:56.392Z,95848.95
2018-09-11T07:02:26.001Z,95842.34
2018-09-11T07:04:55.000Z,95832.20
2018-09-11T07:07:24.595Z,95848.05
2018-09-11T07:09:53.856Z,95839.96
2018-09-11T07:12:22.836Z,95832.16
2018-09-11T07:14:51.885Z,95840.40
2018-09-11T07:17:20.857Z,95840.00
2018-09-11T07:19:50.031Z,95839.17
2018-09-11T07:22:18.997Z,95845.30
2018-09-11T07:24:48.063Z,95839.01
2018-09-11T07:27:17.031Z,95830.22
2018-09-11T07:29:46.084Z,95826.47
2018-09-11T07:32:15.084Z,95841.83
2018-09-11T07:34:44.116Z,95834.50
2018-09-11T07:37:13.132Z,95826.31
2018-09-11T07:39:42.031Z,95832.06
2018-09-11T07:42:10.927Z,95825.91
2018-09-11T07:44:39.954Z,95845.64
2018-09-11T07:47:08.881Z,95834.27
2018-09-11T07:49:38.154Z,95840.89
2018-09-11T07:54:34.856Z,95839.57
2018-09-11T07:57:03.822Z,95850.50
2018-09-11T07:59:32.903Z,95846.13
2018-09-11T08:02:01.937Z,95853.75
2018-09-11T08:04:31.049Z,95853.52
2018-09-11T08:07:00.228Z,95847.92
2018-09-11T08:09:29.284Z,95845.66
2018-09-11T08:11:58.224Z,95858.36
2018-09-11T08:14:27.119Z,95855.23
2018-09-11T08:16:56.070Z,95839.56
2018-09-11T08:19:24.963Z,95851.77
2018-09-11T08:21:53.980Z,95842.24
2018-09-11T08:24:22.951Z,95840.95
2018-09-11T08:26:51.859Z,95831.36
2018-09-11T08:29:20.876Z,95841.58
2018-09-11T08:31:49.824Z,95844.61
2018-09-11T08:34:18.735Z,95845.30
2018-09-11T08:36:47.628Z,95850.55
2018-09-11T08:39:16.533Z,95848.56
2018-09-11T08:41:45.547Z,95856.36
2018-09-11T08:44:14.610Z,95848.17
2018-09-11T08:46:43.564Z,95858.58
2018-09-11T08:49:12.507Z,95842.35
2018-09-11T08:51:41.427Z,95849.20
2018-09-11T08:54:10.369Z,95848.17
2018-09-11T08:56:39.303Z,95844.55
2018-09-11T08:59:08.283Z,95838.67
2018-09-11T09:01:37.216Z,95847.66
2018-09-11T09:04:06.107Z,95848.69
2018-09-11T09:06:35.072Z,95840.81
2018-09-11T09:09:04.635Z,95846.02
2018-09-11T09:11:33.530Z,95838.18
2018-09-11T09:14:02.506Z,95828.06
2018-09-11T09:16:31.420Z,95831.83
2018-09-11T09:19:00.358Z,95821.09
2018-09-11T09:21:29.275Z,95814.95
2018-09-11T09:23:58.241Z,95822.11
2018-09-11T09:26:27.186Z,95810.55
2018-09-11T09:28:56.230Z,95812.56
2018-09-11T09:31:25.154Z,95812.25
2018-09-11T09:33:54.040Z,95807.48
2018-09-11T09:36:23.295Z,95808.69
2018-09-11T09:38:52.244Z,95813.89
2018-09-11T09:41:21.170Z,95811.28
2018-09-11T09:43:50.163Z,95811.28
2018-09-11T09:46:19.095Z,95808.92
2018-09-11T09:48:48.024Z,95801.55
2018-09-11T09:51:17.059Z,95801.42
2018-09-11T09:53:46.457Z,95795.84
2018-09-11T09:56:15.673Z,95801.97
2018-09-11T09:58:44.587Z,95803.06
2018-09-11T10:01:18.639Z,95802.72
2018-09-11T10:03:47.579Z,95797.62
2018-09-11T10:06:16.546Z,95802.96
2018-09-11T10:08:45.486Z,95799.63
2018-09-11T10:11:14.403Z,95802.99
2018-09-11T10:13:43.399Z,95799.72
2018-09-11T10:16:12.323Z,95799.24
2018-09-11T10:18:41.299Z,95804.95
2018-09-11T10:21:10.245Z,95796.06
2018-09-11T10:23:39.227Z,95789.11
2018-09-11T10:26:08.129Z,95794.80
2018-09-11T10:28:37.072Z,95789.59
2018-09-11T10:31:06.125Z,95786.30
2018-09-11T10:33:35.163Z,95787.69
2018-09-11T10:36:04.120Z,95793.61
2018-09-11T10:38:33.031Z,95794.98
2018-09-11T10:41:01.932Z,95787.93
2018-09-11T10:43:30.832Z,95792.70
2018-09-11T10:45:59.813Z,95792.30
2018-09-11T10:48:28.793Z,95778.97
2018-09-11T10:50:57.710Z,95777.67
2018-09-11T10:53:26.724Z,95780.14
2018-09-11T10:55:55.709Z,95782.94
2018-09-11T10:58:24.764Z,95776.94
2018-09-11T11:00:53.829Z,95786.47
2018-09-11T11:03:22.805Z,95785.27
2018-09-11T11:05:51.694Z,95776.41
2018-09-11T11:08:20.687Z,95770.86
2018-09-11T11:10:49.648Z,95774.84
2018-09-11T11:13:18.564Z,95768.37
2018-09-11T11:15:47.523Z,95770.59
2018-09-11T11:18:16.434Z,95769.11
2018-09-11T11:20:45.401Z,95774.47
2018-09-11T11:23:14.311Z,95764.98
2018-09-11T11:25:43.330Z,95756.80
2018-09-11T11:28:12.305Z,95757.66
2018-09-11T11:30:41.208Z,95754.66
2018-09-11T11:33:10.191Z,95769.52
2018-09-11T11:35:39.196Z,95766.89
2018-09-11T11:38:08.116Z,95764.01
2018-09-11T11:40:37.030Z,95768.95
2018-09-11T11:43:06.044Z,95766.27
2018-09-11T11:45:34.958Z,95765.69
2018-09-11T11:48:04.012Z,95758.24
2018-09-11T11:50:32.897Z,95761.34
2018-09-11T11:53:01.973Z,95761.70
2018-09-11T11:55:31.013Z,95761.41
2018-09-11T11:57:59.889Z,95751.77
2018-09-11T12:00:28.908Z,95754.13
2018-09-11T12:02:57.908Z,95752.89
2018-09-11T12:05:26.842Z,95744.69
2018-09-11T12:07:55.870Z,95739.88
2018-09-11T12:10:24.844Z,95739.81
2018-09-11T12:12:53.829Z,95730.39
2018-09-11T12:15:22.736Z,95721.02
2018-09-11T12:17:51.756Z,95730.16
2018-09-11T12:40:23.342Z,95711.53
2018-09-11T12:42:52.570Z,95713.55
2018-09-11T12:45:21.631Z,95706.09
2018-09-11T12:47:51.198Z,95704.22
2018-09-11T12:50:20.271Z,95712.41
2018-09-11T12:52:49.571Z,95710.81
2018-09-11T12:55:18.729Z,95705.97
2018-09-11T12:57:47.944Z,95705.31
2018-09-11T13:00:17.051Z,95704.73
2018-09-11T13:02:46.027Z,95695.19
2018-09-11T13:05:15.307Z,95704.22
2018-09-11T13:07:44.689Z,95696.27
2018-09-11T13:10:13.730Z,95705.81
2018-09-11T13:12:42.747Z,95697.41
2018-09-11T13:15:12.069Z,95694.22
2018-09-11T13:17:41.244Z,95694.60
2018-09-11T13:20:10.520Z,95698.13
2018-09-11T13:22:39.814Z,95692.71
2018-09-11T13:25:09.136Z,95699.76
2018-09-11T13:27:38.486Z,95699.38
2018-09-11T13:30:07.456Z,95703.12
2018-09-11T13:32:36.623Z,95704.00
2018-09-11T13:35:05.568Z,95698.41
2018-09-11T13:37:34.716Z,95700.10
2018-09-11T13:40:03.770Z,95703.09
2018-09-11T13:42:33.112Z,95696.52
2018-09-11T13:45:02.415Z,95698.22
2018-09-11T13:47:31.741Z,95694.41
2018-09-11T13:50:01.460Z,95697.89
2018-09-11T13:52:30.604Z,95698.89
2018-09-11T13:54:59.505Z,95696.17
2018-09-11T13:57:28.757Z,95700.52
2018-09-11T13:59:57.904Z,95696.65
2018-09-11T14:02:27.264Z,95693.85
2018-09-11T14:04:56.407Z,95697.39
2018-09-11T14:07:25.416Z,95699.12
2018-09-11T14:09:54.700Z,95702.66
2018-09-11T14:12:24.048Z,95701.09
2018-09-11T14:14:53.300Z,95700.88
2018-09-11T14:17:22.407Z,95700.64
2018-09-11T14:19:51.679Z,95702.30
2018-09-11T14:22:20.980Z,95703.86
2018-09-11T14:24:50.210Z,95699.77
2018-09-11T14:27:19.344Z,95685.16
2018-09-11T14:29:48.479Z,95704.53
2018-09-11T14:32:17.680Z,95711.52
2018-09-11T14:34:47.063Z,95689.13
2018-09-11T14:37:16.192Z,95707.89
2018-09-11T14:39:45.400Z,95706.15
2018-09-11T14:42:14.652Z,95701.18
2018-09-11T14:44:43.979Z,95681.55
2018-09-11T14:47:13.344Z,95710.18
2018-09-11T14:49:42.478Z,95701.28
2018-09-11T14:52:11.395Z,95702.57
2018-09-11T14:54:40.696Z,95698.11
2018-09-11T14:57:09.929Z,95706.53
2018-09-11T14:59:39.010Z,95696.89
2018-09-11T15:02:07.985Z,95694.42
2018-09-11T15:04:37.304Z,95704.53
2018-09-11T15:07:06.686Z,95687.81
2018-09-11T15:09:35.968Z,95717.31
2018-09-11T15:12:05.999Z,95714.43
2018-09-11T15:14:35.263Z,95702.22
2018-09-11T15:17:04.253Z,95705.31
2018-09-11T15:19:33.215Z,95699.22
2018-09-11T15:22:02.223Z,95708.22
2018-09-11T15:24:32.090Z,95698.48
2018-09-11T15:27:01.400Z,95711.38
2018-09-11T15:29:30.744Z,95723.33
2018-09-11T15:31:59.888Z,95719.45
2018-09-11T15:34:29.279Z,95709.52
2018-09-11T15:36:58.624Z,95717.82
2018-09-11T15:39:28.256Z,95727.38
2018-09-11T15:56:47.829Z,95714.29
2018-09-11T15:59:16.866Z,95716.66
2018-09-11T16:01:45.792Z,95718.31
2018-09-11T16:04:14.712Z,95717.13
2018-09-11T16:06:43.701Z,95719.39
2018-09-11T16:09:13.721Z,95720.27
2018-09-11T16:11:43.037Z,95713.39
2018-09-11T16:14:12.167Z,95712.56
2018-09-11T16:16:41.098Z,95711.03
2018-09-11T16:19:10.444Z,95717.44
2018-09-11T16:21:39.376Z,95714.76
2018-09-11T16:24:08.309Z,95725.39
2018-09-11T16:26:37.223Z,95723.84
2018-09-11T16:29:06.183Z,95723.84
2018-09-11T16:31:35.160Z,95727.88
2018-09-11T16:34:04.173Z,95725.06
2018-09-11T16:36:33.113Z,95721.67
2018-09-11T16:39:02.105Z,95731.39
2018-09-11T16:41:31.184Z,95732.13
2018-09-11T16:44:00.104Z,95733.56
2018-09-11T16:46:29.378Z,95729.84
2018-09-11T16:48:58.548Z,95729.38
2018-09-11T16:51:27.522Z,95733.04
2018-09-11T16:53:56.513Z,95733.13
2018-09-11T16:56:25.480Z,95742.54
2018-09-11T16:58:54.509Z,95744.25
2018-09-11T17:01:23.489Z,95739.80
2018-09-11T17:03:52.429Z,95741.25
2018-09-11T17:06:21.378Z,95745.41
2018-09-11T17:08:50.285Z,95749.47
2018-09-11T17:11:19.307Z,95743.42
2018-09-11T17:13:48.325Z,95743.47
2018-09-11T17:16:17.311Z,95747.11
2018-09-11T17:18:46.436Z,95751.11
2018-09-11T17:21:15.464Z,95759.07
2018-09-11T17:23:44.484Z,95756.31
2018-09-11T17:26:13.434Z,95763.08
2018-09-11T17:28:42.335Z,95764.53
2018-09-11T17:31:11.320Z,95766.44
2018-09-11T17:33:40.240Z,95768.38
2018-09-11T17:36:09.164Z,95770.14
2018-09-11T17:38:38.222Z,95775.27
2018-09-11T17:41:07.258Z,95771.79
2018-09-11T17:43:36.182Z,95782.92
2018-09-11T17:46:05.227Z,95794.00
2018-09-11T17:48:34.155Z,95800.39
2018-09-11T17:51:03.049Z,95803.47
2018-09-11T17:53:32.004Z,95800.10
2018-09-11T17:56:00.972Z,95798.63
2018-09-11T17:58:29.956Z,95802.61
2018-09-11T18:00:58.868Z,95802.52
2018-09-11T18:03:27.900Z,95807.83
2018-09-11T18:05:56.802Z,95815.70
2018-09-11T18:08:25.724Z,95815.06
2018-09-11T18:10:54.647Z,95815.78
2018-09-11T18:13:23.572Z,95820.20
2018-09-11T18:15:52.469Z,95822.86
2018-09-11T18:18:21.418Z,95825.17
2018-09-11T18:20:50.370Z,95821.02
2018-09-11T18:23:19.271Z,95827.23
2018-09-11T18:25:48.354Z,95822.22
2018-09-11T18:28:17.284Z,95819.56
2018-09-11T18:30:46.261Z,95817.42
2018-09-11T18:33:15.208Z,95825.09
2018-09-11T18:35:44.134Z,95828.05
2018-09-11T18:38:13.116Z,95836.73
2018-09-11T18:40:42.048Z,95827.02
2018-09-11T18:43:11.055Z,95822.95
2018-09-11T18:45:39.984Z,95824.45
2018-09-11T18:48:08.934Z,95826.63
2018-09-11T18:50:37.835Z,95834.47
2018-09-11T18:53:06.761Z,95831.30
2018-09-11T18:55:35.708Z,95834.47
2018-09-11T18:58:04.750Z,95843.04
2018-09-11T19:00:33.609Z,95843.44
2018-09-11T19:03:03.344Z,95845.45
2018-09-11T19:05:32.316Z,95843.30
2018-09-11T19:08:01.900Z,95842.58
2018-09-11T19:10:31.258Z,95842.27
2018-09-11T19:13:00.208Z,95843.69
2018-09-11T19:15:29.212Z,95849.00
2018-09-11T19:17:58.145Z,95846.77
2018-09-11T19:20:27.146Z,95848.61
2018-09-11T19:22:56.026Z,95848.81
2018-09-11T19:25:24.930Z,95844.20
2018-09-11T19:27:53.935Z,95844.71
2018-09-11T19:30:22.892Z,95851.86
2018-09-11T19:32:51.849Z,95850.03
2018-09-11T19:35:21.043Z,95851.57
2018-09-11T19:37:50.159Z,95851.52
2018-09-11T19:40:19.040Z,95849.80
2018-09-11T19:42:48.211Z,95846.13
2018-09-11T19:45:17.434Z,95847.36
2018-09-11T19:47:46.633Z,95854.52
2018-09-11T19:50:15.871Z,95849.50
2018-09-11T19:52:44.815Z,95846.42
2018-09-11T19:55:13.728Z,95855.50
2018-09-11T19:57:42.816Z,95856.38
2018-09-11T20:00:12.217Z,95854.42
2018-09-11T20:02:41.322Z,95850.23
2018-09-11T20:05:10.199Z,95851.41
2018-09-11T20:07:39.450Z,95852.37
2018-09-11T20:10:08.544Z,95853.61
2018-09-11T20:12:37.471Z,95854.94
2018-09-11T20:15:07.200Z,95852.88
2018-09-11T20:17:36.387Z,95854.07
2018-09-11T20:20:05.550Z,95862.41
2018-09-11T20:22:34.427Z,95859.42
2018-09-11T20:25:03.426Z,95863.33
2018-09-11T20:27:32.494Z,95861.28
2018-09-11T20:30:01.445Z,95854.87
2018-09-11T20:32:30.557Z,95863.55
2018-09-11T20:34:59.844Z,95860.16
2018-09-11T20:37:28.852Z,95864.45
2018-09-11T20:39:58.159Z,95864.23
2018-09-11T20:42:27.376Z,95863.71
2018-09-11T20:44:56.588Z,95866.95
2018-09-11T20:47:25.709Z,95865.53
2018-09-11T20:49:54.932Z,95861.09
2018-09-11T20:52:23.952Z,95861.58
2018-09-11T20:54:53.248Z,95855.41
2018-09-11T20:57:22.121Z,95852.11
2018-09-11T20:59:51.043Z,95856.57
2018-09-11T21:02:19.954Z,95861.27
2018-09-11T21:04:48.883Z,95854.09
2018-09-11T21:07:17.956Z,95863.50
2018-09-11T21:09:46.835Z,95859.77
2018-09-11T21:12:15.744Z,95854.08
2018-09-11T21:14:44.687Z,95863.23
2018-09-11T21:17:13.563Z,95863.95
2018-09-11T21:19:42.462Z,95856.16
2018-09-11T21:22:11.356Z,95858.81
2018-09-11T21:24:40.300Z,95859.91
2018-09-11T21:27:09.198Z,95859.37
2018-09-11T21:29:38.175Z,95865.08
2018-09-11T21:32:07.354Z,95869.36
2018-09-11T21:34:36.304Z,95863.66
2018-09-11T21:37:05.302Z,95865.48
2018-09-11T21:39:34.591Z,95871.70
2018-09-11T21:42:03.847Z,95869.49
2018-09-11T21:44:33.047Z,95873.94
2018-09-11T21:47:01.923Z,95871.28
2018-09-11T21:49:31.144Z,95883.31
2018-09-11T21:52:00.066Z,95880.25
2018-09-11T21:54:29.395Z,95887.55
2018-09-11T21:56:58.598Z,95886.45
2018-09-11T21:59:27.963Z,95884.51
2018-09-11T22:02:00.946Z,95889.25
2018-09-11T22:04:30.342Z,95888.69
2018-09-11T22:06:59.267Z,95892.02
2018-09-11T22:09:28.229Z,95889.73
2018-09-11T22:11:57.397Z,95894.38
2018-09-11T22:14:26.595Z,95894.27
2018-09-11T22:16:55.664Z,95896.52
2018-09-11T22:19:24.831Z,95894.47
2018-09-11T22:21:53.939Z,95883.23
2018-09-11T22:24:22.811Z,95900.13
2018-09-11T22:26:51.674Z,95902.72
2018-09-11T22:29:20.502Z,95901.19
2018-09-11T22:31:49.361Z,95900.83
2018-09-11T22:34:18.245Z,95907.11
2018-09-11T22:36:47.077Z,95895.02
2018-09-11T22:39:15.895Z,95897.61
2018-09-11T22:41:44.812Z,95897.01
2018-09-11T22:44:13.605Z,95895.58
2018-09-11T22:46:42.467Z,95893.63
2018-09-11T22:49:11.424Z,95892.47
2018-09-11T22:51:40.233Z,95889.47
2018-09-11T22:54:09.069Z,95891.48
2018-09-11T22:56:37.950Z,95891.24
2018-09-11T22:59:06.872Z,95886.06
2018-09-11T23:01:35.721Z,95886.92
2018-09-11T23:04:04.538Z,95892.08
2018-09-11T23:06:33.467Z,95882.94
2018-09-11T23:09:02.450Z,95890.22
2018-09-11T23:11:31.470Z,95891.61
2018-09-11T23:14:00.349Z,95890.15
2018-09-11T23:16:29.228Z,95893.61
2018-09-11T23:18:58.108Z,95884.87
2018-09-11T23:21:27.076Z,95877.67
2018-09-11T23:23:55.999Z,95892.44
2018-09-11T23:26:24.960Z,95887.03
2018-09-11T23:28:53.859Z,95883.67
2018-09-11T23:31:22.763Z,95881.65
2018-09-11T23:33:51.701Z,95884.81
2018-09-11T23:36:20.563Z,95886.13
2018-09-11T23:38:49.441Z,95883.38
2018-09-11T23:41:18.442Z,95883.88
2018-09-11T23:43:47.533Z,95880.53
2018-09-11T23:46:16.576Z,95877.17
2018-09-11T23:48:45.445Z,95879.31
2018-09-11T23:51:14.368Z,95884.55
2018-09-11T23:53:43.259Z,95880.02
2018-09-11T23:56:12.264Z,95879.00
2018-09-11T23:58:41.204Z,95871.64
